RCSSRJAA

Guest
Details From RCSS - Sungshan
To RJAA - NARITA INTL
Flight Number -
Tags decoded
Created
Modified
Stats Distance 12,707 nm / 23,534 km
Max Altitude 0 ft / 0 m
Waypoints 10
Social Downloads 0
Likes 0
Share VATSIM

Download

Looking for another format? Having issues loading an existing format? Contact us
Advertisement - Login to hide

Notes

Requested: RCSS APU LEKOS MADOG JAKAL KEC SHIMA NAKTU NIKKO SYOEN LANAI SHELY COMET RJAA Unmatched points: SYOEN LANAI

Route

RCSS APU LEKOS MADOG JAKAL KEC SHIMA NIKKO COMET RJAA

ID Type Via Altitude Latitude Longitude Leg Dist Tot Dist Heading (true) Name
O RCSS APT - 0 ft / 0 m 25.06959˚ 121.55257˚ - 0 nm - Sungshan
APU VOR - 0 ft / 0 m 25.17694˚ 121.52222˚ 6 nm 6 nm 346° / 346° ANBU VOR-DME
LEKOS FIX - 0 ft / 0 m 25.50750˚ 122.48056˚ 55 nm 62 nm 69° / 69° -
MADOG FIX - 0 ft / 0 m 32.12519˚ 132.39624˚ 655 nm 717 nm 50° / 55° -
JAKAL FIX - 0 ft / 0 m 33.06203˚ 134.23425˚ 108 nm 826 nm 58° / 59° -
KEC VOR - 0 ft / 0 m 33.44775˚ 135.79450˚ 81 nm 908 nm 73° / 74° KUSHIMOTO VORTAC
SHIMA FIX - 0 ft / 0 m 34.37387˚ 136.65043˚ 70 nm 978 nm 37° / 38° -
NIKKO FIX - 0 ft / 0 m 42.94366˚ -70.32847˚ 5936 nm 6914 nm 20° / 158° -
COMET FIX - 0 ft / 0 m 36.20435˚ 140.58907˚ 5764 nm 12679 nm 335° / 202° -
O RJAA APT - 0 ft / 0 m 35.77655˚ 140.38277˚ 27 nm 12707 nm 201° / 201° NARITA INTL

Altitude Profile

Advertisement - Login to hide

Weather


0- 5 10 15 20 25 30 35+ Temperature / ° C

Clouds and Precipitation
Forecast for 2017-12-14 18:00 UTC. Updated 29 minutes ago

Ground ~20,000 ft ~40,000 ft Winds

RCSS

Details ICAO RCSS (TSA)
Name Sungshan
Region Republic of China (Taiwan)
Timezone Asia/Taipei (UTC+8.0)
Stats Elevation 18 ft / 5 m (AMSL)
Location 25.069586° 121.552570°
Runways 1
Magnetic Variation 4.481° W

METAR

RCSS 141330Z 08010KT 7000 -RA FEW006 SCT015 BKN026 19/18 Q1020 NOSIG RMK A3012

Decode

TAF

TAF RCSS 141100Z 1412/1512 09012KT 9999 FEW015 BKN032 BKN070 TEMPO 1414/1418 5000 RA FEW012 BKN018 BKN040

Decode

Departure Runways

ID Width Length Bearing (true) Bearing (mag) Surface Threshold Offset Overrun Length
10 197 ft / 60 m 8,566 ft / 2,611 m 92.26° 96.74° Asphalt 0 ft / 0 m 197 ft / 60 m
28 197 ft / 60 m 8,566 ft / 2,611 m 272.27° 276.75° Asphalt 0 ft / 0 m 525 ft / 160 m

RJAA

Details ICAO RJAA (NRT)
Name NARITA INTL
Region Japan
Timezone Asia/Tokyo (UTC+9.0)
Stats Elevation 141 ft / 43 m (AMSL)
Location 35.776552° 140.382770°
Runways 2
Magnetic Variation 7.405° W

METAR

RJAA 141330Z 26002KT CAVOK M00/M03 Q1025 NOSIG

Decode

TAF

TAF RJAA 141107Z 1412/1518 36005KT 9999 FEW030= TAF RJBB 141108Z 1412/1518 04010KT 9999 FEW020 SCT040 BECMG 1512/1515 17006KT

Decode

Destination Runways

ID Width Length Bearing (true) Bearing (mag) Surface Threshold Offset Overrun Length
16L 196 ft / 60 m 7,162 ft / 2,183 m 149.61° 157.02° Asphalt 190 ft / 58 m 0 ft / 0 m
16R 196 ft / 60 m 13,142 ft / 4,006 m 149.61° 157.02° Asphalt 0 ft / 0 m 410 ft / 125 m
34L 196 ft / 60 m 13,142 ft / 4,006 m 329.62° 337.03° Asphalt 0 ft / 0 m 415 ft / 126 m
34R 196 ft / 60 m 7,162 ft / 2,183 m 329.62° 337.03° Asphalt 190 ft / 58 m 0 ft / 0 m

Approach Navaids

Runway Type Ident Frequency Range Bearing (true) Bearing (mag) Slope Elevation
16L Localiser ITM 110.70 MHz 18 nm / 33 km 149.62° 157.02° - 141 ft / 43 m (AMSL)
16L Glidescope ITM 110.70 MHz 10 nm / 19 km 149.62° 157.02° 3.00° 141 ft / 43 m (AMSL)
16L DME ITM 110.70 MHz 18 nm / 33 km - - - 145 ft / 44 m (AMSL)
16R Localiser IKF 111.50 MHz 18 nm / 33 km 149.63° 157.03° - 141 ft / 43 m (AMSL)
16R Glidescope IKF 111.50 MHz 10 nm / 19 km 149.62° 157.02° 3.00° 141 ft / 43 m (AMSL)
16R DME IKF 111.50 MHz 18 nm / 33 km - - - 145 ft / 44 m (AMSL)
34L Localiser IYQ 111.90 MHz 18 nm / 33 km 329.61° 337.01° - 141 ft / 43 m (AMSL)
34L Glidescope IYQ 111.90 MHz 10 nm / 19 km 329.62° 337.02° 3.00° 141 ft / 43 m (AMSL)
34L DME IYQ 111.90 MHz 18 nm / 33 km - - - 153 ft / 47 m (AMSL)
34R Localiser ITJ 110.90 MHz 18 nm / 33 km 329.62° 337.02° - 141 ft / 43 m (AMSL)
34R Glidescope ITJ 110.90 MHz 10 nm / 19 km 329.62° 337.02° 3.00° 141 ft / 43 m (AMSL)
34R DME ITJ 110.90 MHz 18 nm / 33 km - - - 148 ft / 45 m (AMSL)

Popular Alternatives